sensor_id;sensor_type;location;lat;lon;timestamp;P1;durP1;ratioP1;P2;durP2;ratioP2
13102;SDS011;52970;46.752;17.108;2023-09-19T00:00:37;12.48;;;7.28;;
13102;SDS011;52970;46.752;17.108;2023-09-19T00:03:03;17.13;;;7.75;;
13102;SDS011;52970;46.752;17.108;2023-09-19T00:05:29;14.45;;;7.30;;
13102;SDS011;52970;46.752;17.108;2023-09-19T00:07:55;10.73;;;7.03;;
13102;SDS011;52970;46.752;17.108;2023-09-19T00:10:23;12.85;;;7.05;;
13102;SDS011;52970;46.752;17.108;2023-09-19T00:12:52;15.02;;;7.07;;
13102;SDS011;52970;46.752;17.108;2023-09-19T00:15:20;13.27;;;6.93;;
13102;SDS011;52970;46.752;17.108;2023-09-19T00:17:46;14.68;;;7.78;;
13102;SDS011;52970;46.752;17.108;2023-09-19T00:20:13;14.18;;;7.43;;
13102;SDS011;52970;46.752;17.108;2023-09-19T00:22:39;13.38;;;6.65;;
13102;SDS011;52970;46.752;17.108;2023-09-19T00:27:48;11.13;;;6.18;;
13102;SDS011;52970;46.752;17.108;2023-09-19T00:30:16;13.38;;;6.53;;
13102;SDS011;52970;46.752;17.108;2023-09-19T00:32:46;12.32;;;7.25;;
13102;SDS011;52970;46.752;17.108;2023-09-19T00:35:12;10.43;;;6.15;;
13102;SDS011;52970;46.752;17.108;2023-09-19T00:37:39;15.27;;;7.75;;
13102;SDS011;52970;46.752;17.108;2023-09-19T00:40:05;13.55;;;6.68;;
13102;SDS011;52970;46.752;17.108;2023-09-19T00:42:31;12.88;;;6.85;;
13102;SDS011;52970;46.752;17.108;2023-09-19T00:44:56;12.13;;;7.28;;
13102;SDS011;52970;46.752;17.108;2023-09-19T00:47:22;12.75;;;7.15;;
13102;SDS011;52970;46.752;17.108;2023-09-19T00:49:47;13.52;;;6.78;;
13102;SDS011;52970;46.752;17.108;2023-09-19T00:52:15;11.70;;;6.75;;
13102;SDS011;52970;46.752;17.108;2023-09-19T00:54:41;14.02;;;6.88;;
13102;SDS011;52970;46.752;17.108;2023-09-19T00:57:06;11.02;;;7.13;;
13102;SDS011;52970;46.752;17.108;2023-09-19T00:59:33;11.35;;;6.43;;
13102;SDS011;52970;46.752;17.108;2023-09-19T01:01:58;13.52;;;6.38;;
13102;SDS011;52970;46.752;17.108;2023-09-19T01:04:25;12.18;;;6.40;;
13102;SDS011;52970;46.752;17.108;2023-09-19T01:06:50;14.63;;;7.20;;
13102;SDS011;52970;46.752;17.108;2023-09-19T01:09:19;13.10;;;6.82;;
13102;SDS011;52970;46.752;17.108;2023-09-19T01:11:45;13.40;;;6.70;;
13102;SDS011;52970;46.752;17.108;2023-09-19T01:14:25;14.27;;;6.28;;
13102;SDS011;52970;46.752;17.108;2023-09-19T01:17:09;12.40;;;7.75;;
13102;SDS011;52970;46.752;17.108;2023-09-19T01:22:32;11.57;;;6.63;;
13102;SDS011;52970;46.752;17.108;2023-09-19T01:30:21;12.50;;;6.40;;
13102;SDS011;52970;46.752;17.108;2023-09-19T01:32:52;11.25;;;6.38;;
13102;SDS011;52970;46.752;17.108;2023-09-19T01:35:18;8.77;;;6.10;;
13102;SDS011;52970;46.752;17.108;2023-09-19T01:37:43;11.55;;;6.60;;
13102;SDS011;52970;46.752;17.108;2023-09-19T01:40:10;12.18;;;6.55;;
13102;SDS011;52970;46.752;17.108;2023-09-19T01:47:37;11.80;;;5.80;;
13102;SDS011;52970;46.752;17.108;2023-09-19T01:50:22;10.90;;;6.53;;
13102;SDS011;52970;46.752;17.108;2023-09-19T01:52:54;11.48;;;6.03;;
13102;SDS011;52970;46.752;17.108;2023-09-19T01:55:21;11.43;;;6.30;;
13102;SDS011;52970;46.752;17.108;2023-09-19T01:58:07;9.85;;;5.82;;
13102;SDS011;52970;46.752;17.108;2023-09-19T02:00:34;13.45;;;6.50;;
13102;SDS011;52970;46.752;17.108;2023-09-19T02:03:01;10.23;;;6.45;;
13102;SDS011;52970;46.752;17.108;2023-09-19T02:05:27;11.52;;;6.20;;
13102;SDS011;52970;46.752;17.108;2023-09-19T02:07:53;10.48;;;6.15;;
13102;SDS011;52970;46.752;17.108;2023-09-19T02:10:18;14.60;;;6.80;;
13102;SDS011;52970;46.752;17.108;2023-09-19T02:12:44;11.70;;;6.50;;
13102;SDS011;52970;46.752;17.108;2023-09-19T02:15:10;11.25;;;6.45;;
13102;SDS011;52970;46.752;17.108;2023-09-19T02:17:35;14.45;;;6.57;;
13102;SDS011;52970;46.752;17.108;2023-09-19T02:20:00;10.70;;;5.85;;
13102;SDS011;52970;46.752;17.108;2023-09-19T02:22:27;9.50;;;6.55;;
13102;SDS011;52970;46.752;17.108;2023-09-19T02:24:53;11.80;;;6.38;;
13102;SDS011;52970;46.752;17.108;2023-09-19T02:27:18;8.82;;;6.65;;
13102;SDS011;52970;46.752;17.108;2023-09-19T02:29:44;11.25;;;6.57;;
13102;SDS011;52970;46.752;17.108;2023-09-19T02:32:09;11.60;;;6.28;;
13102;SDS011;52970;46.752;17.108;2023-09-19T02:34:35;9.95;;;5.93;;
13102;SDS011;52970;46.752;17.108;2023-09-19T02:37:02;15.18;;;6.97;;
13102;SDS011;52970;46.752;17.108;2023-09-19T02:39:30;9.13;;;6.00;;
13102;SDS011;52970;46.752;17.108;2023-09-19T02:41:55;9.13;;;6.22;;
13102;SDS011;52970;46.752;17.108;2023-09-19T02:44:20;10.85;;;6.43;;
13102;SDS011;52970;46.752;17.108;2023-09-19T02:46:46;11.98;;;6.65;;
13102;SDS011;52970;46.752;17.108;2023-09-19T02:49:11;10.18;;;6.07;;
13102;SDS011;52970;46.752;17.108;2023-09-19T02:51:38;14.68;;;6.78;;
13102;SDS011;52970;46.752;17.108;2023-09-19T02:54:03;10.55;;;5.97;;
13102;SDS011;52970;46.752;17.108;2023-09-19T02:56:29;12.40;;;7.00;;
13102;SDS011;52970;46.752;17.108;2023-09-19T02:58:55;10.75;;;7.18;;
13102;SDS011;52970;46.752;17.108;2023-09-19T03:01:21;15.85;;;7.30;;
13102;SDS011;52970;46.752;17.108;2023-09-19T03:03:46;9.98;;;6.57;;
13102;SDS011;52970;46.752;17.108;2023-09-19T03:06:12;13.13;;;6.90;;
13102;SDS011;52970;46.752;17.108;2023-09-19T03:08:40;9.55;;;6.38;;
13102;SDS011;52970;46.752;17.108;2023-09-19T03:11:07;12.65;;;6.55;;
13102;SDS011;52970;46.752;17.108;2023-09-19T03:13:36;11.32;;;6.22;;
13102;SDS011;52970;46.752;17.108;2023-09-19T03:16:03;11.25;;;6.15;;
13102;SDS011;52970;46.752;17.108;2023-09-19T03:18:30;12.02;;;6.60;;
13102;SDS011;52970;46.752;17.108;2023-09-19T03:20:56;11.48;;;6.75;;
13102;SDS011;52970;46.752;17.108;2023-09-19T03:23:22;11.75;;;6.70;;
13102;SDS011;52970;46.752;17.108;2023-09-19T03:25:47;8.35;;;6.47;;
13102;SDS011;52970;46.752;17.108;2023-09-19T03:28:13;11.18;;;6.35;;
13102;SDS011;52970;46.752;17.108;2023-09-19T03:30:40;8.30;;;6.07;;
13102;SDS011;52970;46.752;17.108;2023-09-19T03:33:05;12.45;;;6.35;;
13102;SDS011;52970;46.752;17.108;2023-09-19T03:35:31;13.05;;;6.80;;
13102;SDS011;52970;46.752;17.108;2023-09-19T03:37:56;14.02;;;7.35;;
13102;SDS011;52970;46.752;17.108;2023-09-19T03:40:21;16.75;;;8.02;;
13102;SDS011;52970;46.752;17.108;2023-09-19T03:42:48;13.38;;;7.25;;
13102;SDS011;52970;46.752;17.108;2023-09-19T03:45:13;14.50;;;7.93;;
13102;SDS011;52970;46.752;17.108;2023-09-19T03:47:39;12.10;;;6.72;;
13102;SDS011;52970;46.752;17.108;2023-09-19T03:50:05;14.55;;;7.78;;
13102;SDS011;52970;46.752;17.108;2023-09-19T03:52:32;15.20;;;7.03;;
13102;SDS011;52970;46.752;17.108;2023-09-19T03:54:57;8.27;;;6.95;;
13102;SDS011;52970;46.752;17.108;2023-09-19T03:57:23;12.90;;;7.30;;
13102;SDS011;52970;46.752;17.108;2023-09-19T03:59:49;8.43;;;6.47;;
13102;SDS011;52970;46.752;17.108;2023-09-19T04:02:14;10.48;;;6.55;;
13102;SDS011;52970;46.752;17.108;2023-09-19T04:04:50;6.18;;;5.40;;
13102;SDS011;52970;46.752;17.108;2023-09-19T04:07:16;7.25;;;4.35;;
13102;SDS011;52970;46.752;17.108;2023-09-19T04:09:41;7.03;;;3.75;;
13102;SDS011;52970;46.752;17.108;2023-09-19T04:12:07;5.80;;;3.50;;
13102;SDS011;52970;46.752;17.108;2023-09-19T04:14:34;7.45;;;4.47;;
13102;SDS011;52970;46.752;17.108;2023-09-19T04:16:59;5.13;;;3.33;;
13102;SDS011;52970;46.752;17.108;2023-09-19T04:19:25;4.40;;;2.85;;
13102;SDS011;52970;46.752;17.108;2023-09-19T04:21:50;2.58;;;2.10;;
13102;SDS011;52970;46.752;17.108;2023-09-19T04:24:16;3.22;;;2.17;;
13102;SDS011;52970;46.752;17.108;2023-09-19T04:26:41;8.70;;;3.33;;
13102;SDS011;52970;46.752;17.108;2023-09-19T04:29:07;5.60;;;2.50;;
13102;SDS011;52970;46.752;17.108;2023-09-19T04:31:36;4.60;;;2.20;;
13102;SDS011;52970;46.752;17.108;2023-09-19T04:34:02;4.35;;;2.17;;
13102;SDS011;52970;46.752;17.108;2023-09-19T04:36:28;3.70;;;2.10;;
13102;SDS011;52970;46.752;17.108;2023-09-19T04:38:53;3.20;;;2.25;;
13102;SDS011;52970;46.752;17.108;2023-09-19T04:41:19;2.97;;;2.10;;
13102;SDS011;52970;46.752;17.108;2023-09-19T04:43:44;4.27;;;2.20;;
13102;SDS011;52970;46.752;17.108;2023-09-19T04:46:09;2.10;;;1.90;;
13102;SDS011;52970;46.752;17.108;2023-09-19T04:48:34;4.05;;;2.00;;
13102;SDS011;52970;46.752;17.108;2023-09-19T04:51:00;2.03;;;1.70;;
13102;SDS011;52970;46.752;17.108;2023-09-19T04:53:25;2.63;;;2.05;;
13102;SDS011;52970;46.752;17.108;2023-09-19T04:55:51;2.00;;;1.80;;
13102;SDS011;52970;46.752;17.108;2023-09-19T04:58:17;2.28;;;1.85;;
13102;SDS011;52970;46.752;17.108;2023-09-19T05:00:44;4.15;;;1.98;;
13102;SDS011;52970;46.752;17.108;2023-09-19T05:03:09;2.25;;;1.50;;
13102;SDS011;52970;46.752;17.108;2023-09-19T05:05:35;1.80;;;1.70;;
13102;SDS011;52970;46.752;17.108;2023-09-19T05:08:00;3.65;;;2.03;;
13102;SDS011;52970;46.752;17.108;2023-09-19T05:10:25;5.03;;;1.67;;
13102;SDS011;52970;46.752;17.108;2023-09-19T05:12:53;2.10;;;1.60;;
13102;SDS011;52970;46.752;17.108;2023-09-19T05:15:19;2.70;;;1.67;;
13102;SDS011;52970;46.752;17.108;2023-09-19T05:17:50;4.35;;;1.85;;
13102;SDS011;52970;46.752;17.108;2023-09-19T05:20:17;4.95;;;1.88;;
13102;SDS011;52970;46.752;17.108;2023-09-19T05:22:43;2.60;;;1.70;;
13102;SDS011;52970;46.752;17.108;2023-09-19T05:25:11;2.83;;;1.45;;
13102;SDS011;52970;46.752;17.108;2023-09-19T05:27:41;2.60;;;1.50;;
13102;SDS011;52970;46.752;17.108;2023-09-19T05:30:07;2.90;;;1.77;;
13102;SDS011;52970;46.752;17.108;2023-09-19T05:32:33;3.90;;;1.80;;
13102;SDS011;52970;46.752;17.108;2023-09-19T05:34:58;6.40;;;1.98;;
13102;SDS011;52970;46.752;17.108;2023-09-19T05:37:24;3.70;;;2.08;;
13102;SDS011;52970;46.752;17.108;2023-09-19T05:39:51;3.17;;;1.77;;
13102;SDS011;52970;46.752;17.108;2023-09-19T05:42:16;3.40;;;1.80;;
13102;SDS011;52970;46.752;17.108;2023-09-19T05:44:42;3.50;;;2.03;;
13102;SDS011;52970;46.752;17.108;2023-09-19T05:47:07;2.97;;;1.73;;
13102;SDS011;52970;46.752;17.108;2023-09-19T05:49:34;3.95;;;1.80;;
13102;SDS011;52970;46.752;17.108;2023-09-19T05:51:59;4.35;;;1.83;;
13102;SDS011;52970;46.752;17.108;2023-09-19T05:54:26;2.90;;;1.80;;
13102;SDS011;52970;46.752;17.108;2023-09-19T05:56:52;3.05;;;1.75;;
13102;SDS011;52970;46.752;17.108;2023-09-19T05:59:18;3.20;;;1.70;;
13102;SDS011;52970;46.752;17.108;2023-09-19T06:01:44;4.85;;;2.15;;
13102;SDS011;52970;46.752;17.108;2023-09-19T06:04:09;1.75;;;1.50;;
13102;SDS011;52970;46.752;17.108;2023-09-19T06:06:35;2.95;;;2.25;;
13102;SDS011;52970;46.752;17.108;2023-09-19T06:09:04;2.00;;;1.65;;
13102;SDS011;52970;46.752;17.108;2023-09-19T06:11:30;3.45;;;1.90;;
13102;SDS011;52970;46.752;17.108;2023-09-19T06:13:57;1.70;;;1.60;;
13102;SDS011;52970;46.752;17.108;2023-09-19T06:16:22;2.83;;;1.55;;
13102;SDS011;52970;46.752;17.108;2023-09-19T06:18:48;2.42;;;1.70;;
13102;SDS011;52970;46.752;17.108;2023-09-19T06:21:14;2.42;;;1.70;;
13102;SDS011;52970;46.752;17.108;2023-09-19T06:23:40;3.47;;;2.10;;
13102;SDS011;52970;46.752;17.108;2023-09-19T06:26:06;5.40;;;1.92;;
13102;SDS011;52970;46.752;17.108;2023-09-19T06:28:32;2.28;;;1.80;;
13102;SDS011;52970;46.752;17.108;2023-09-19T06:30:58;6.10;;;2.00;;
13102;SDS011;52970;46.752;17.108;2023-09-19T06:33:24;4.78;;;2.00;;
13102;SDS011;52970;46.752;17.108;2023-09-19T06:35:49;7.32;;;2.30;;
13102;SDS011;52970;46.752;17.108;2023-09-19T06:38:17;3.05;;;1.77;;
13102;SDS011;52970;46.752;17.108;2023-09-19T06:40:44;7.50;;;2.25;;
13102;SDS011;52970;46.752;17.108;2023-09-19T06:43:10;4.85;;;2.03;;
13102;SDS011;52970;46.752;17.108;2023-09-19T06:45:35;5.25;;;2.00;;
13102;SDS011;52970;46.752;17.108;2023-09-19T06:48:01;3.47;;;2.10;;
13102;SDS011;52970;46.752;17.108;2023-09-19T06:50:28;1.77;;;1.60;;
13102;SDS011;52970;46.752;17.108;2023-09-19T06:52:56;1.83;;;1.60;;
13102;SDS011;52970;46.752;17.108;2023-09-19T06:55:22;1.73;;;1.63;;
13102;SDS011;52970;46.752;17.108;2023-09-19T06:57:53;2.67;;;1.85;;
13102;SDS011;52970;46.752;17.108;2023-09-19T07:00:19;2.75;;;1.60;;
13102;SDS011;52970;46.752;17.108;2023-09-19T07:05:29;2.45;;;1.85;;
13102;SDS011;52970;46.752;17.108;2023-09-19T07:07:55;4.60;;;2.10;;
13102;SDS011;52970;46.752;17.108;2023-09-19T07:10:21;2.53;;;1.90;;
13102;SDS011;52970;46.752;17.108;2023-09-19T07:12:54;2.13;;;1.85;;
13102;SDS011;52970;46.752;17.108;2023-09-19T07:15:19;2.95;;;1.70;;
13102;SDS011;52970;46.752;17.108;2023-09-19T07:17:45;2.25;;;1.80;;
13102;SDS011;52970;46.752;17.108;2023-09-19T07:20:10;1.98;;;1.83;;
13102;SDS011;52970;46.752;17.108;2023-09-19T07:22:41;2.33;;;1.90;;
13102;SDS011;52970;46.752;17.108;2023-09-19T07:25:06;2.38;;;1.50;;
13102;SDS011;52970;46.752;17.108;2023-09-19T07:27:32;2.60;;;1.70;;
13102;SDS011;52970;46.752;17.108;2023-09-19T07:29:57;2.22;;;1.98;;
13102;SDS011;52970;46.752;17.108;2023-09-19T07:32:23;2.00;;;1.80;;
13102;SDS011;52970;46.752;17.108;2023-09-19T07:34:49;3.30;;;1.83;;
13102;SDS011;52970;46.752;17.108;2023-09-19T07:37:14;3.88;;;1.75;;
13102;SDS011;52970;46.752;17.108;2023-09-19T07:39:40;3.70;;;2.00;;
13102;SDS011;52970;46.752;17.108;2023-09-19T07:42:06;2.33;;;1.88;;
13102;SDS011;52970;46.752;17.108;2023-09-19T07:44:32;2.30;;;1.70;;
13102;SDS011;52970;46.752;17.108;2023-09-19T07:46:57;2.85;;;1.90;;
13102;SDS011;52970;46.752;17.108;2023-09-19T07:49:23;2.40;;;1.58;;
13102;SDS011;52970;46.752;17.108;2023-09-19T07:51:48;2.50;;;1.95;;
13102;SDS011;52970;46.752;17.108;2023-09-19T07:54:13;3.33;;;2.05;;
13102;SDS011;52970;46.752;17.108;2023-09-19T07:56:39;2.30;;;2.10;;
13102;SDS011;52970;46.752;17.108;2023-09-19T07:59:04;3.00;;;2.05;;
13102;SDS011;52970;46.752;17.108;2023-09-19T08:01:30;3.05;;;1.90;;
13102;SDS011;52970;46.752;17.108;2023-09-19T08:03:55;2.38;;;1.90;;
13102;SDS011;52970;46.752;17.108;2023-09-19T08:06:20;2.45;;;1.88;;
13102;SDS011;52970;46.752;17.108;2023-09-19T08:08:46;3.13;;;1.60;;
13102;SDS011;52970;46.752;17.108;2023-09-19T08:11:11;2.40;;;1.73;;
13102;SDS011;52970;46.752;17.108;2023-09-19T08:13:37;3.38;;;1.60;;
13102;SDS011;52970;46.752;17.108;2023-09-19T08:16:08;3.05;;;2.15;;
13102;SDS011;52970;46.752;17.108;2023-09-19T08:18:34;2.50;;;1.67;;
13102;SDS011;52970;46.752;17.108;2023-09-19T08:20:59;4.05;;;1.70;;
13102;SDS011;52970;46.752;17.108;2023-09-19T08:23:25;2.85;;;2.03;;
13102;SDS011;52970;46.752;17.108;2023-09-19T08:25:55;1.80;;;1.70;;
13102;SDS011;52970;46.752;17.108;2023-09-19T08:28:21;2.92;;;2.08;;
13102;SDS011;52970;46.752;17.108;2023-09-19T08:30:49;2.58;;;2.10;;
13102;SDS011;52970;46.752;17.108;2023-09-19T08:33:15;2.72;;;2.15;;
13102;SDS011;52970;46.752;17.108;2023-09-19T08:35:41;2.10;;;1.52;;
13102;SDS011;52970;46.752;17.108;2023-09-19T08:38:08;2.58;;;2.10;;
13102;SDS011;52970;46.752;17.108;2023-09-19T08:40:37;2.42;;;1.75;;
13102;SDS011;52970;46.752;17.108;2023-09-19T08:43:05;1.85;;;1.75;;
13102;SDS011;52970;46.752;17.108;2023-09-19T08:45:32;1.70;;;1.60;;
13102;SDS011;52970;46.752;17.108;2023-09-19T08:50:28;2.03;;;1.70;;
13102;SDS011;52970;46.752;17.108;2023-09-19T08:52:55;3.03;;;1.77;;
13102;SDS011;52970;46.752;17.108;2023-09-19T08:55:21;2.05;;;1.85;;
13102;SDS011;52970;46.752;17.108;2023-09-19T08:57:51;2.33;;;1.80;;
13102;SDS011;52970;46.752;17.108;2023-09-19T09:00:17;1.70;;;1.60;;
13102;SDS011;52970;46.752;17.108;2023-09-19T09:02:44;2.38;;;2.10;;
13102;SDS011;52970;46.752;17.108;2023-09-19T09:05:10;1.98;;;1.70;;
13102;SDS011;52970;46.752;17.108;2023-09-19T09:07:40;2.17;;;1.98;;
13102;SDS011;52970;46.752;17.108;2023-09-19T09:10:05;2.50;;;1.98;;
13102;SDS011;52970;46.752;17.108;2023-09-19T09:12:32;2.00;;;1.90;;
13102;SDS011;52970;46.752;17.108;2023-09-19T09:14:57;2.15;;;1.80;;
13102;SDS011;52970;46.752;17.108;2023-09-19T09:17:23;3.22;;;1.67;;
13102;SDS011;52970;46.752;17.108;2023-09-19T09:19:52;4.60;;;1.88;;
13102;SDS011;52970;46.752;17.108;2023-09-19T09:22:17;2.80;;;1.63;;
13102;SDS011;52970;46.752;17.108;2023-09-19T09:27:19;2.60;;;1.95;;
13102;SDS011;52970;46.752;17.108;2023-09-19T09:29:45;2.05;;;1.95;;
13102;SDS011;52970;46.752;17.108;2023-09-19T09:34:45;2.10;;;2.00;;
13102;SDS011;52970;46.752;17.108;2023-09-19T09:37:14;2.30;;;1.73;;
13102;SDS011;52970;46.752;17.108;2023-09-19T09:39:40;2.00;;;1.80;;
13102;SDS011;52970;46.752;17.108;2023-09-19T09:42:25;2.35;;;1.88;;
13102;SDS011;52970;46.752;17.108;2023-09-19T09:45:12;3.45;;;1.80;;
13102;SDS011;52970;46.752;17.108;2023-09-19T09:47:41;2.63;;;2.10;;
13102;SDS011;52970;46.752;17.108;2023-09-19T09:50:06;2.05;;;1.85;;
13102;SDS011;52970;46.752;17.108;2023-09-19T09:52:45;2.47;;;1.65;;
13102;SDS011;52970;46.752;17.108;2023-09-19T09:55:11;2.35;;;1.83;;
13102;SDS011;52970;46.752;17.108;2023-09-19T09:57:37;2.00;;;1.80;;
13102;SDS011;52970;46.752;17.108;2023-09-19T10:00:06;3.33;;;1.80;;
13102;SDS011;52970;46.752;17.108;2023-09-19T10:02:37;2.00;;;1.67;;
13102;SDS011;52970;46.752;17.108;2023-09-19T10:05:11;2.40;;;1.77;;
13102;SDS011;52970;46.752;17.108;2023-09-19T10:07:55;2.30;;;1.77;;
13102;SDS011;52970;46.752;17.108;2023-09-19T10:10:32;1.60;;;1.50;;
13102;SDS011;52970;46.752;17.108;2023-09-19T10:13:20;3.92;;;1.80;;
13102;SDS011;52970;46.752;17.108;2023-09-19T10:15:50;1.60;;;1.50;;
13102;SDS011;52970;46.752;17.108;2023-09-19T10:18:21;1.60;;;1.48;;
13102;SDS011;52970;46.752;17.108;2023-09-19T10:20:46;2.58;;;1.80;;
13102;SDS011;52970;46.752;17.108;2023-09-19T10:23:14;2.25;;;2.03;;
13102;SDS011;52970;46.752;17.108;2023-09-19T10:25:40;2.30;;;1.80;;
13102;SDS011;52970;46.752;17.108;2023-09-19T10:28:09;2.60;;;1.90;;
13102;SDS011;52970;46.752;17.108;2023-09-19T10:30:40;2.42;;;1.83;;
13102;SDS011;52970;46.752;17.108;2023-09-19T10:33:09;2.17;;;2.03;;
13102;SDS011;52970;46.752;17.108;2023-09-19T10:35:34;1.90;;;1.80;;
13102;SDS011;52970;46.752;17.108;2023-09-19T10:38:03;1.85;;;1.75;;
13102;SDS011;52970;46.752;17.108;2023-09-19T10:40:29;2.13;;;1.92;;
13102;SDS011;52970;46.752;17.108;2023-09-19T10:43:00;2.83;;;2.10;;
13102;SDS011;52970;46.752;17.108;2023-09-19T10:45:26;3.95;;;2.20;;
13102;SDS011;52970;46.752;17.108;2023-09-19T10:47:54;2.33;;;1.60;;
13102;SDS011;52970;46.752;17.108;2023-09-19T10:50:21;3.35;;;1.77;;
13102;SDS011;52970;46.752;17.108;2023-09-19T10:52:47;2.28;;;1.90;;
13102;SDS011;52970;46.752;17.108;2023-09-19T10:55:16;1.92;;;1.67;;
13102;SDS011;52970;46.752;17.108;2023-09-19T10:57:44;2.17;;;1.65;;
13102;SDS011;52970;46.752;17.108;2023-09-19T11:00:09;2.42;;;1.90;;
13102;SDS011;52970;46.752;17.108;2023-09-19T11:05:36;3.75;;;1.90;;
13102;SDS011;52970;46.752;17.108;2023-09-19T11:08:05;2.80;;;2.15;;
13102;SDS011;52970;46.752;17.108;2023-09-19T11:13:27;1.90;;;1.80;;
13102;SDS011;52970;46.752;17.108;2023-09-19T11:24:28;2.70;;;1.85;;
13102;SDS011;52970;46.752;17.108;2023-09-19T11:26:56;2.78;;;2.10;;
13102;SDS011;52970;46.752;17.108;2023-09-19T11:29:33;2.17;;;1.60;;
13102;SDS011;52970;46.752;17.108;2023-09-19T11:32:01;2.72;;;1.95;;
13102;SDS011;52970;46.752;17.108;2023-09-19T11:37:00;2.20;;;2.00;;
13102;SDS011;52970;46.752;17.108;2023-09-19T11:39:29;2.00;;;1.90;;
13102;SDS011;52970;46.752;17.108;2023-09-19T11:41:54;2.47;;;2.10;;
13102;SDS011;52970;46.752;17.108;2023-09-19T11:44:31;1.75;;;1.65;;
13102;SDS011;52970;46.752;17.108;2023-09-19T11:46:59;2.03;;;1.85;;
13102;SDS011;52970;46.752;17.108;2023-09-19T11:49:28;1.80;;;1.70;;
13102;SDS011;52970;46.752;17.108;2023-09-19T11:51:59;3.75;;;2.28;;
13102;SDS011;52970;46.752;17.108;2023-09-19T11:54:30;2.28;;;2.03;;
13102;SDS011;52970;46.752;17.108;2023-09-19T11:56:57;2.20;;;2.00;;
13102;SDS011;52970;46.752;17.108;2023-09-19T11:59:23;3.55;;;2.00;;
13102;SDS011;52970;46.752;17.108;2023-09-19T12:01:51;2.72;;;2.22;;
13102;SDS011;52970;46.752;17.108;2023-09-19T12:04:44;1.95;;;1.73;;
13102;SDS011;52970;46.752;17.108;2023-09-19T12:07:13;2.83;;;1.90;;
13102;SDS011;52970;46.752;17.108;2023-09-19T12:09:42;1.98;;;1.85;;
13102;SDS011;52970;46.752;17.108;2023-09-19T12:12:22;3.55;;;2.08;;
13102;SDS011;52970;46.752;17.108;2023-09-19T12:14:48;2.75;;;2.05;;
13102;SDS011;52970;46.752;17.108;2023-09-19T12:17:13;2.65;;;1.85;;
13102;SDS011;52970;46.752;17.108;2023-09-19T12:19:39;3.20;;;2.60;;
13102;SDS011;52970;46.752;17.108;2023-09-19T12:22:04;2.38;;;2.17;;
13102;SDS011;52970;46.752;17.108;2023-09-19T12:24:29;3.63;;;2.47;;
13102;SDS011;52970;46.752;17.108;2023-09-19T12:26:59;3.78;;;2.53;;
13102;SDS011;52970;46.752;17.108;2023-09-19T12:29:26;3.47;;;2.42;;
13102;SDS011;52970;46.752;17.108;2023-09-19T12:31:58;4.45;;;2.88;;
13102;SDS011;52970;46.752;17.108;2023-09-19T12:34:24;3.25;;;2.70;;
13102;SDS011;52970;46.752;17.108;2023-09-19T12:37:08;3.78;;;2.60;;
13102;SDS011;52970;46.752;17.108;2023-09-19T12:39:43;2.67;;;2.33;;
13102;SDS011;52970;46.752;17.108;2023-09-19T12:42:13;5.82;;;3.45;;
13102;SDS011;52970;46.752;17.108;2023-09-19T12:44:42;2.90;;;2.60;;
13102;SDS011;52970;46.752;17.108;2023-09-19T12:47:18;2.83;;;2.40;;
13102;SDS011;52970;46.752;17.108;2023-09-19T12:52:34;3.80;;;1.85;;
13102;SDS011;52970;46.752;17.108;2023-09-19T12:55:00;3.47;;;2.22;;
13102;SDS011;52970;46.752;17.108;2023-09-19T12:57:29;2.38;;;2.17;;
13102;SDS011;52970;46.752;17.108;2023-09-19T12:59:57;6.22;;;1.92;;
13102;SDS011;52970;46.752;17.108;2023-09-19T13:02:22;2.78;;;2.45;;
13102;SDS011;52970;46.752;17.108;2023-09-19T13:04:53;3.25;;;2.28;;
13102;SDS011;52970;46.752;17.108;2023-09-19T13:12:49;2.97;;;1.83;;
13102;SDS011;52970;46.752;17.108;2023-09-19T13:15:15;2.25;;;2.05;;
13102;SDS011;52970;46.752;17.108;2023-09-19T13:17:48;2.65;;;2.00;;
13102;SDS011;52970;46.752;17.108;2023-09-19T13:22:54;1.88;;;1.75;;
13102;SDS011;52970;46.752;17.108;2023-09-19T13:25:23;2.60;;;2.05;;
13102;SDS011;52970;46.752;17.108;2023-09-19T13:30:19;2.42;;;1.98;;
13102;SDS011;52970;46.752;17.108;2023-09-19T13:32:44;2.00;;;1.90;;
13102;SDS011;52970;46.752;17.108;2023-09-19T13:35:10;2.30;;;2.10;;
13102;SDS011;52970;46.752;17.108;2023-09-19T13:37:35;2.20;;;1.90;;
13102;SDS011;52970;46.752;17.108;2023-09-19T13:40:04;2.42;;;1.80;;
13102;SDS011;52970;46.752;17.108;2023-09-19T13:42:30;2.10;;;1.90;;
13102;SDS011;52970;46.752;17.108;2023-09-19T13:44:55;1.90;;;1.80;;
13102;SDS011;52970;46.752;17.108;2023-09-19T13:47:21;2.10;;;1.75;;
13102;SDS011;52970;46.752;17.108;2023-09-19T13:49:50;1.70;;;1.60;;
13102;SDS011;52970;46.752;17.108;2023-09-19T13:52:18;3.90;;;2.03;;
13102;SDS011;52970;46.752;17.108;2023-09-19T13:54:43;1.73;;;1.63;;
13102;SDS011;52970;46.752;17.108;2023-09-19T13:57:08;2.13;;;1.93;;
13102;SDS011;52970;46.752;17.108;2023-09-19T13:59:34;2.10;;;1.90;;
13102;SDS011;52970;46.752;17.108;2023-09-19T14:02:00;2.30;;;1.70;;
13102;SDS011;52970;46.752;17.108;2023-09-19T14:04:25;3.22;;;1.80;;
13102;SDS011;52970;46.752;17.108;2023-09-19T14:06:52;1.83;;;1.73;;
13102;SDS011;52970;46.752;17.108;2023-09-19T14:09:17;3.10;;;1.80;;
13102;SDS011;52970;46.752;17.108;2023-09-19T14:11:44;1.80;;;1.70;;
13102;SDS011;52970;46.752;17.108;2023-09-19T14:14:12;2.05;;;1.85;;
13102;SDS011;52970;46.752;17.108;2023-09-19T14:16:37;2.35;;;1.50;;
13102;SDS011;52970;46.752;17.108;2023-09-19T14:19:04;2.20;;;2.00;;
13102;SDS011;52970;46.752;17.108;2023-09-19T14:21:30;2.67;;;1.63;;
13102;SDS011;52970;46.752;17.108;2023-09-19T14:23:55;2.10;;;2.00;;
13102;SDS011;52970;46.752;17.108;2023-09-19T14:26:21;2.00;;;1.80;;
13102;SDS011;52970;46.752;17.108;2023-09-19T14:28:48;2.00;;;1.90;;
13102;SDS011;52970;46.752;17.108;2023-09-19T14:31:13;3.05;;;1.85;;
13102;SDS011;52970;46.752;17.108;2023-09-19T14:33:39;1.88;;;1.70;;
13102;SDS011;52970;46.752;17.108;2023-09-19T14:36:06;2.03;;;1.90;;
13102;SDS011;52970;46.752;17.108;2023-09-19T14:38:34;1.98;;;1.88;;
13102;SDS011;52970;46.752;17.108;2023-09-19T14:41:01;1.85;;;1.75;;
13102;SDS011;52970;46.752;17.108;2023-09-19T14:43:26;2.08;;;1.90;;
13102;SDS011;52970;46.752;17.108;2023-09-19T14:45:52;1.58;;;1.52;;
13102;SDS011;52970;46.752;17.108;2023-09-19T14:48:17;1.75;;;1.65;;
13102;SDS011;52970;46.752;17.108;2023-09-19T14:50:42;1.85;;;1.70;;
13102;SDS011;52970;46.752;17.108;2023-09-19T14:53:09;2.10;;;1.98;;
13102;SDS011;52970;46.752;17.108;2023-09-19T14:55:38;1.90;;;1.70;;
13102;SDS011;52970;46.752;17.108;2023-09-19T14:58:06;2.65;;;2.10;;
13102;SDS011;52970;46.752;17.108;2023-09-19T15:00:33;3.30;;;1.80;;
13102;SDS011;52970;46.752;17.108;2023-09-19T15:03:00;2.13;;;1.70;;
13102;SDS011;52970;46.752;17.108;2023-09-19T15:05:27;2.35;;;1.80;;
13102;SDS011;52970;46.752;17.108;2023-09-19T15:07:54;3.10;;;2.20;;
13102;SDS011;52970;46.752;17.108;2023-09-19T15:10:21;3.38;;;1.92;;
13102;SDS011;52970;46.752;17.108;2023-09-19T15:12:47;2.53;;;1.90;;
13102;SDS011;52970;46.752;17.108;2023-09-19T15:15:13;2.75;;;1.63;;
13102;SDS011;52970;46.752;17.108;2023-09-19T15:17:38;2.08;;;1.80;;
13102;SDS011;52970;46.752;17.108;2023-09-19T15:20:04;2.00;;;1.90;;
13102;SDS011;52970;46.752;17.108;2023-09-19T15:22:32;2.53;;;1.95;;
13102;SDS011;52970;46.752;17.108;2023-09-19T15:24:57;2.10;;;1.83;;
13102;SDS011;52970;46.752;17.108;2023-09-19T15:27:22;2.42;;;2.08;;